This is the latest recevied weather packets stored in our database for station/object OE6JUE. If no packets are shown the sender has not sent any weather packets the latest 1 day(s).
| Time | Temp. | Humidity | Pressure | Rain* | Wind** | Luminosity | Snow |
|---|---|---|---|---|---|---|---|
| 1777992133 | 20° C | 43% | 1011.5 hPa | 0 mm | 2.24 m/s, 135° | - | - |
| 1777991833 | 20° C | 43% | 1011.5 hPa | 0 mm | 1.79 m/s, 180° | - | - |
| 1777991533 | 20° C | 43% | 1011.5 hPa | 0 mm | 1.79 m/s, 180° | - | - |
| 1777991233 | 20° C | 44% | 1011.6 hPa | 0 mm | 1.34 m/s, 158° | - | - |
| 1777990932 | 20° C | 43% | 1011.5 hPa | 0 mm | 2.68 m/s, 270° | - | - |
| 1777990633 | 20.56° C | 42% | 1011.5 hPa | 0 mm | 2.24 m/s, 158° | - | - |
| 1777990333 | 20.56° C | 43% | 1011.6 hPa | 0 mm | 2.68 m/s, 180° | - | - |
| 1777990033 | 21.11° C | 42% | 1011.5 hPa | 0 mm | 2.68 m/s, 158° | - | - |
| 1777989733 | 21.67° C | 41% | 1011.5 hPa | - | 2.68 m/s, 135° | - | - |
| 1777989433 | 22.22° C | 40% | 1011.6 hPa | 0 mm | 3.13 m/s, 180° | - | - |
| 1777989133 | 22.78° C | 37% | 1011.5 hPa | 0 mm | 3.58 m/s, 180° | - | - |
| 1777988833 | 22.78° C | 36% | 1011.5 hPa | 0 mm | 2.24 m/s, 135° | - | - |
| 1777988532 | 23.33° C | 35% | 1011.4 hPa | 0 mm | 2.68 m/s, 135° | - | - |
| 1777988232 | 23.89° C | 35% | 1011.4 hPa | 0 mm | 2.24 m/s, 135° | - | - |
| 1777987933 | 23.33° C | 35% | 1011.6 hPa | 0 mm | 2.24 m/s, 135° | - | - |
| 1777987632 | 23.33° C | 34% | 1011.4 hPa | 0 mm | 1.79 m/s, 180° | - | - |
| 1777987332 | 23.89° C | 34% | 1011.4 hPa | 0 mm | 2.24 m/s, 135° | - | - |
| 1777987033 | 23.89° C | 34% | 1011.5 hPa | 0 mm | 1.79 m/s, 135° | - | - |
| 1777986733 | 23.89° C | 35% | 1011.3 hPa | 0 mm | 2.24 m/s, 135° | - | - |
| 1777986432 | 23.33° C | 34% | 1011.2 hPa | 0 mm | 2.68 m/s, 180° | - | - |
| 1777986132 | 22.78° C | 36% | 1011.4 hPa | - | 2.24 m/s, 135° | - | - |
| 1777985832 | 22.22° C | 40% | 1011.6 hPa | 0 mm | 2.24 m/s, 225° | - | - |
| 1777985532 | 22.78° C | 34% | 1011.4 hPa | 0 mm | 2.68 m/s, 135° | - | - |
| 1777985232 | 23.33° C | 34% | 1011.5 hPa | 0 mm | 1.79 m/s, 225° | - | - |
| 1777984933 | 23.89° C | 32% | 1011.3 hPa | 0 mm | 3.13 m/s, 135° | - | - |
* Rain latest hour (hover to see other rain measurements)
** Current wind speed in m/s (hover to see current wind gust speed)